Time;durP1;ratioP1;P1;durP2;ratioP2;P2;SDS_P1;SDS_P2;PMS_P1;PMS_P2;Temp;Humidity;BMP_temperature;BMP_pressure;BME280_temperature;BME280_humidity;BME280_pressure;Samples;Min_cycle;Max_cycle;Signal;HPM_P1;HPM_P2
2021/12/31 00:08:32;;;;;;;77.73;28.37;;;;;;;-2.58;92.28;100814.84;31197229;28;20427;-78
2021/12/31 00:23:34;;;;;;;60.03;25.97;;;;;;;-2.59;92.78;100818.59;31211687;28;20064;-79
2021/12/31 00:38:36;;;;;;;60.13;27.43;;;;;;;-2.60;92.36;100798.47;31242354;28;20050;-78
2021/12/31 00:53:38;;;;;;;68.43;27.93;;;;;;;-2.58;92.87;100790.94;31218317;28;20068;-81
2021/12/31 01:08:41;;;;;;;64.60;26.17;;;;;;;-2.61;93.06;100782.81;31211535;28;20056;-77
2021/12/31 01:23:42;;;;;;;70.70;23.77;;;;;;;-2.58;91.60;100761.69;31156280;28;20081;-78
2021/12/31 01:38:45;;;;;;;61.80;25.13;;;;;;;-2.60;92.07;100757.81;31186762;28;20042;-79
2021/12/31 01:53:47;;;;;;;55.53;22.80;;;;;;;-2.79;93.20;100780.13;31179106;28;20054;-79
2021/12/31 02:08:49;;;;;;;53.50;23.33;;;;;;;-2.89;93.83;100787.66;31156400;28;20112;-77
2021/12/31 02:23:55;;;;;;;53.60;21.40;;;;;;;-2.95;94.14;100751.69;31216649;28;20137;-77
2021/12/31 02:38:56;;;;;;;67.55;21.65;;;;;;;-2.95;92.89;100733.09;31191422;28;20070;-76
2021/12/31 02:54:05;;;;;;;46.97;22.50;;;;;;;-2.78;93.95;100731.22;31199238;28;20053;-78
2021/12/31 03:09:07;;;;;;;57.10;24.87;;;;;;;-2.69;93.04;100739.19;31205425;28;20060;-78
2021/12/31 03:24:09;;;;;;;79.17;28.97;;;;;;;-2.53;93.43;100715.56;31192828;28;20042;-78
2021/12/31 03:39:11;;;;;;;55.63;24.73;;;;;;;-2.66;93.15;100684.63;31181440;28;20574;-78
2021/12/31 03:54:13;;;;;;;55.67;22.90;;;;;;;-2.53;94.61;100695.06;31200147;28;20503;-79
2021/12/31 04:09:15;;;;;;;70.07;24.27;;;;;;;-2.58;92.67;100676.63;31199834;28;20060;-78
2021/12/31 04:39:38;;;;;;;59.90;24.70;;;;;;;-2.54;93.64;100680.22;31212302;28;20050;-79
2021/12/31 04:54:39;;;;;;;65.40;22.40;;;;;;;-2.44;93.59;100695.84;31202229;28;20057;-78
2021/12/31 05:09:41;;;;;;;46.03;19.03;;;;;;;-2.58;95.89;100713.84;31174642;28;20462;-80
2021/12/31 05:24:44;;;;;;;53.17;22.50;;;;;;;-3.02;96.43;100730.91;31184418;28;22267;-79
2021/12/31 05:39:46;;;;;;;62.57;22.27;;;;;;;-2.81;97.18;100731.06;31154986;28;20046;-79
2021/12/31 05:54:47;;;;;;;53.20;20.20;;;;;;;-2.80;97.42;100716.69;31184367;28;20054;-78
2021/12/31 06:09:49;;;;;;;34.87;16.50;;;;;;;-2.73;97.13;100732.16;31168524;28;20053;-78
2021/12/31 06:24:52;;;;;;;50.77;17.80;;;;;;;-2.67;100.00;100736.22;31202744;28;20053;-79
2021/12/31 06:40:03;;;;;;;42.57;19.20;;;;;;;-2.78;100.00;100733.88;31174401;28;20052;-79
2021/12/31 06:55:06;;;;;;;45.37;18.13;;;;;;;-2.48;100.00;100726.03;31153674;28;20053;-79
2021/12/31 07:10:08;;;;;;;40.07;16.67;;;;;;;-2.63;100.00;100727.31;31204749;28;20046;-80
2021/12/31 07:25:10;;;;;;;36.77;13.60;;;;;;;-2.45;100.00;100731.50;31156919;28;20061;-78
2021/12/31 07:40:12;;;;;;;18.93;8.53;;;;;;;-2.15;100.00;100736.94;31212254;28;20045;-78
2021/12/31 07:55:14;;;;;;;17.63;10.40;;;;;;;-2.82;100.00;100721.50;31228339;28;20072;-79
2021/12/31 08:10:17;;;;;;;23.60;11.20;;;;;;;-2.55;100.00;100707.13;31227685;28;20133;-80
2021/12/31 08:25:39;;;;;;;24.27;9.90;;;;;;;-2.02;100.00;100692.59;31211355;28;20103;-78
2021/12/31 08:40:41;;;;;;;17.30;7.63;;;;;;;-1.93;100.00;100664.84;31194152;28;20145;-78
2021/12/31 08:55:43;;;;;;;23.10;10.40;;;;;;;-2.19;100.00;100656.19;31290065;28;20059;-79
2021/12/31 09:10:45;;;;;;;25.20;9.83;;;;;;;-1.98;100.00;100646.41;31215896;28;20152;-78
2021/12/31 09:25:49;;;;;;;30.43;11.73;;;;;;;-2.34;100.00;100627.44;31196617;28;20081;-79
2021/12/31 09:40:51;;;;;;;41.90;12.40;;;;;;;-2.47;100.00;100608.75;31214766;28;20136;-83
2021/12/31 09:55:55;;;;;;;31.07;10.90;;;;;;;-2.33;100.00;100597.09;31225882;28;20045;-80
2021/12/31 10:11:17;;;;;;;23.50;9.80;;;;;;;-2.47;100.00;100590.13;31204363;28;20049;-79
2021/12/31 10:26:19;;;;;;;33.20;12.90;;;;;;;-1.87;100.00;100586.38;31186908;28;20088;-83
2021/12/31 10:41:21;;;;;;;35.17;12.27;;;;;;;-1.61;100.00;100564.13;31175533;28;20049;-80
2021/12/31 10:56:38;;;;;;;40.33;13.70;;;;;;;-1.53;100.00;100552.63;31188273;28;21891;-85
2021/12/31 11:11:47;;;;;;;55.43;16.97;;;;;;;-1.51;100.00;100531.78;31195594;28;20060;-81
2021/12/31 11:26:49;;;;;;;48.03;15.37;;;;;;;-1.52;100.00;100536.34;31177915;28;20491;-83
2021/12/31 11:41:54;;;;;;;47.73;16.93;;;;;;;-1.37;100.00;100518.97;31248198;28;20054;-83
2021/12/31 11:57:00;;;;;;;43.30;17.93;;;;;;;-1.31;100.00;100515.00;31207049;28;20068;-81
2021/12/31 12:12:07;;;;;;;44.70;18.53;;;;;;;-1.33;100.00;100509.22;31194000;28;20138;-83
2021/12/31 12:27:13;;;;;;;41.67;13.80;;;;;;;-1.35;100.00;100505.31;31191071;28;20053;-84
2021/12/31 12:42:15;;;;;;;35.80;13.40;;;;;;;-1.20;100.00;100505.50;31199226;28;20057;-83
2021/12/31 12:57:25;;;;;;;35.43;15.63;;;;;;;-1.17;100.00;100498.72;31229291;28;20140;-81
2021/12/31 13:12:27;;;;;;;34.77;14.53;;;;;;;-1.22;100.00;100496.28;31244451;28;20056;-84
2021/12/31 13:27:31;;;;;;;41.50;15.73;;;;;;;-1.24;100.00;100487.84;31200309;28;20085;-86
2021/12/31 13:42:34;;;;;;;37.00;14.83;;;;;;;-1.32;100.00;100496.69;31224543;28;20088;-86
2021/12/31 13:57:35;;;;;;;35.37;13.13;;;;;;;-1.41;100.00;100494.09;31212735;28;20069;-83
2021/12/31 14:12:55;;;;;;;33.90;13.97;;;;;;;-1.48;100.00;100483.22;31192185;28;20049;-84
2021/12/31 14:27:58;;;;;;;33.90;13.30;;;;;;;-1.57;100.00;100480.63;31193108;28;20053;-84
2021/12/31 14:43:00;;;;;;;29.93;13.83;;;;;;;-1.49;100.00;100455.03;31200753;28;20133;-84
2021/12/31 14:58:02;;;;;;;35.63;14.20;;;;;;;-1.35;100.00;100455.50;31198588;28;20515;-84
2021/12/31 15:13:04;;;;;;;40.53;16.63;;;;;;;-1.34;100.00;100462.38;31206761;28;20129;-83
2021/12/31 15:28:06;;;;;;;36.20;14.53;;;;;;;-1.31;100.00;100456.41;31196773;28;20144;-84
2021/12/31 15:43:08;;;;;;;32.13;13.57;;;;;;;-1.30;100.00;100452.63;31182911;28;20065;-82
2021/12/31 15:58:09;;;;;;;34.03;12.27;;;;;;;-1.44;100.00;100438.84;31190421;28;20060;-78
2021/12/31 16:13:19;;;;;;;32.17;12.27;;;;;;;-1.45;100.00;100432.75;31212051;28;20129;-84
2021/12/31 16:28:21;;;;;;;33.33;13.93;;;;;;;-1.78;100.00;100421.31;31199400;28;20053;-82
2021/12/31 16:43:23;;;;;;;35.90;13.90;;;;;;;-1.86;100.00;100414.94;31222728;28;21221;-87
2021/12/31 16:58:25;;;;;;;26.90;11.63;;;;;;;-1.75;100.00;100404.69;31203101;28;20088;-83
2021/12/31 17:13:27;;;;;;;28.40;9.73;;;;;;;-1.88;100.00;100395.88;31189886;28;20045;-85
2021/12/31 17:28:29;;;;;;;42.00;15.23;;;;;;;-1.93;100.00;100388.13;31210591;28;20081;-85
2021/12/31 17:43:31;;;;;;;31.83;10.83;;;;;;;-1.69;100.00;100397.28;31188667;28;20073;-82
2021/12/31 17:58:33;;;;;;;42.30;15.20;;;;;;;-1.67;100.00;100384.44;31218455;28;20089;-87
2021/12/31 18:13:35;;;;;;;40.63;15.70;;;;;;;-1.69;100.00;100370.66;31187214;28;20041;-83
2021/12/31 18:28:37;;;;;;;37.10;13.87;;;;;;;-1.74;100.00;100359.13;31221917;28;21287;-84
2021/12/31 18:43:39;;;;;;;50.47;17.07;;;;;;;-1.79;100.00;100346.00;31191740;28;20049;-84
2021/12/31 18:58:40;;;;;;;41.37;15.87;;;;;;;-1.51;100.00;100345.41;31189825;28;20057;-84
2021/12/31 19:13:42;;;;;;;52.87;15.50;;;;;;;-1.49;100.00;100332.53;31187549;28;20046;-82
2021/12/31 19:28:46;;;;;;;51.30;15.37;;;;;;;-1.35;100.00;100321.56;31211238;28;20049;-82
2021/12/31 19:43:47;;;;;;;44.27;15.33;;;;;;;-1.28;100.00;100316.47;31214924;28;20060;-77
2021/12/31 19:58:49;;;;;;;48.00;15.30;;;;;;;-1.39;100.00;100298.25;31235209;28;20058;-81
2021/12/31 20:13:52;;;;;;;61.27;18.53;;;;;;;-1.28;100.00;100295.94;31170603;28;20077;-80
2021/12/31 20:28:54;;;;;;;47.10;13.40;;;;;;;-1.26;100.00;100279.63;31237729;28;20053;-81
2021/12/31 20:43:56;;;;;;;39.33;13.63;;;;;;;-1.25;100.00;100268.63;31226662;28;20046;-85
2021/12/31 20:58:58;;;;;;;55.50;17.80;;;;;;;-1.17;100.00;100259.72;31182988;28;20058;-82
2021/12/31 21:14:01;;;;;;;47.30;13.93;;;;;;;-1.11;100.00;100221.09;31179967;28;20597;-83
2021/12/31 21:29:04;;;;;;;45.50;12.07;;;;;;;-1.21;100.00;100213.56;31186467;28;20467;-81
2021/12/31 21:44:06;;;;;;;29.93;10.53;;;;;;;-1.17;100.00;100190.47;31181839;28;20085;-83
2021/12/31 21:59:08;;;;;;;34.03;9.37;;;;;;;-1.10;100.00;100173.91;31203591;28;20065;-80
2021/12/31 22:14:10;;;;;;;119.53;53.10;;;;;;;-1.02;100.00;100166.91;31188965;28;20103;-81
2021/12/31 22:29:11;;;;;;;149.13;56.63;;;;;;;-0.86;100.00;100141.84;31193204;28;20136;-80
2021/12/31 22:44:13;;;;;;;66.67;20.70;;;;;;;-0.97;100.00;100129.34;31207573;28;20422;-81
2021/12/31 22:59:15;;;;;;;67.93;20.07;;;;;;;-0.90;100.00;100102.88;31193888;28;20064;-83
2021/12/31 23:14:17;;;;;;;57.30;15.43;;;;;;;-0.91;100.00;100096.00;31168139;28;20049;-81
2021/12/31 23:29:20;;;;;;;79.37;25.63;;;;;;;-0.84;100.00;100064.97;31207699;28;20049;-82
2021/12/31 23:44:22;;;;;;;70.33;17.10;;;;;;;-0.77;100.00;100053.72;31206596;28;20055;-83
2021/12/31 23:59:24;;;;;;;74.80;13.93;;;;;;;-0.67;100.00;100034.53;31185081;28;20069;-86
